Time;durP1;ratioP1;P1;durP2;ratioP2;P2;SDS_P1;SDS_P2;PMS_P1;PMS_P2;Temp;Humidity;BMP_temperature;BMP_pressure;BME280_temperature;BME280_humidity;BME280_pressure;Samples;Min_cycle;Max_cycle;Signal;HPM_P1;HPM_P2
2021/12/24 00:00:20;;;;;;;30.23;24.70;;;5.90;99.90;;;;;;5092427;28;20215;-64
2021/12/24 00:02:49;;;;;;;36.70;26.00;;;5.90;99.90;;;;;;5092497;28;20219;-63
2021/12/24 00:05:17;;;;;;;38.65;27.33;;;5.90;99.90;;;;;;5092928;28;20230;-64
2021/12/24 00:07:44;;;;;;;31.98;25.08;;;5.90;99.90;;;;;;5092268;28;20223;-63
2021/12/24 00:10:12;;;;;;;36.95;26.45;;;5.90;99.90;;;;;;5092245;28;20234;-63
2021/12/24 00:12:45;;;;;;;33.50;24.35;;;6.00;99.90;;;;;;5092822;28;20542;-63
2021/12/24 00:15:33;;;;;;;35.85;24.80;;;6.00;99.90;;;;;;5079233;28;20211;-63
2021/12/24 00:18:07;;;;;;;32.28;24.40;;;6.00;99.90;;;;;;5093296;28;20319;-63
2021/12/24 00:21:34;;;;;;;32.38;24.60;;;5.90;99.90;;;;;;5092610;28;20230;-63
2021/12/24 00:37:20;;;;;;;40.33;27.27;;;6.00;99.90;;;;;;5091253;28;21022;-63
2021/12/24 00:39:54;;;;;;;35.97;25.85;;;6.00;99.90;;;;;;5084230;28;20219;-63
2021/12/24 00:42:21;;;;;;;33.20;23.90;;;6.00;99.90;;;;;;5092246;28;20934;-63
2021/12/24 00:44:48;;;;;;;33.22;25.88;;;6.00;99.90;;;;;;5092692;28;20224;-63
2021/12/24 00:47:15;;;;;;;30.08;22.90;;;6.00;99.90;;;;;;5091579;28;20230;-63
2021/12/24 00:49:42;;;;;;;35.08;24.40;;;6.00;99.90;;;;;;5091187;28;20652;-63
2021/12/24 00:52:21;;;;;;;33.55;27.02;;;6.00;99.90;;;;;;5088355;28;20223;-63
2021/12/24 00:55:06;;;;;;;33.17;22.52;;;6.00;99.90;;;;;;5090218;28;20569;-63
2021/12/24 00:57:34;;;;;;;37.67;24.95;;;6.10;99.90;;;;;;5092543;28;20215;-63
2021/12/24 01:00:02;;;;;;;34.17;25.08;;;6.00;99.90;;;;;;5091477;28;20230;-63
2021/12/24 01:02:29;;;;;;;34.13;24.08;;;6.00;99.90;;;;;;5090830;28;20539;-63
2021/12/24 01:04:56;;;;;;;36.17;25.88;;;6.10;99.90;;;;;;5091769;28;20215;-63
2021/12/24 01:07:23;;;;;;;37.03;25.98;;;6.10;99.90;;;;;;5091698;28;20233;-63
2021/12/24 01:09:51;;;;;;;36.20;24.23;;;6.10;99.90;;;;;;5091660;28;20219;-63
2021/12/24 01:12:18;;;;;;;31.65;23.55;;;6.10;99.90;;;;;;5092362;28;20320;-63
2021/12/24 01:14:47;;;;;;;31.85;23.45;;;6.10;99.90;;;;;;5095808;28;20223;-63
2021/12/24 01:17:26;;;;;;;35.50;24.45;;;6.10;99.90;;;;;;5096428;28;20621;-63
2021/12/24 01:19:57;;;;;;;34.17;24.92;;;6.20;99.90;;;;;;5095871;28;20215;-63
2021/12/24 01:25:19;;;;;;;31.48;23.05;;;6.20;99.90;;;;;;5096199;28;20226;-63
2021/12/24 01:38:55;;;;;;;33.90;22.92;;;6.20;99.90;;;;;;5096464;28;20226;-63
2021/12/24 01:42:40;;;;;;;33.17;23.45;;;6.20;99.90;;;;;;5092743;28;20222;-63
2021/12/24 01:44:26;;;;;;;37.35;24.95;;;6.30;99.90;;;;;;5095221;28;20645;-63
2021/12/24 01:46:55;;;;;;;29.55;23.65;;;6.20;99.90;;;;;;5095323;28;20223;-63
2021/12/24 01:49:22;;;;;;;29.90;23.00;;;6.20;99.90;;;;;;5094665;28;20805;-63
2021/12/24 01:51:49;;;;;;;29.00;21.70;;;6.20;99.90;;;;;;5094510;28;20230;-64
2021/12/24 01:54:16;;;;;;;29.65;23.20;;;6.20;99.90;;;;;;5091635;28;20230;-63
2021/12/24 01:56:45;;;;;;;30.33;22.92;;;6.30;99.90;;;;;;5090043;28;20306;-63
2021/12/24 01:59:12;;;;;;;29.45;20.95;;;6.30;99.90;;;;;;5095229;28;20226;-64
2021/12/24 02:01:40;;;;;;;30.90;22.73;;;6.30;99.90;;;;;;5086546;28;20573;-63
2021/12/24 02:04:07;;;;;;;33.92;21.83;;;6.30;99.90;;;;;;5094855;28;20249;-63
2021/12/24 02:06:34;;;;;;;26.15;20.27;;;6.30;99.90;;;;;;5094879;28;20221;-63
2021/12/24 02:09:01;;;;;;;29.67;21.60;;;6.40;99.90;;;;;;5095336;28;20233;-63
2021/12/24 02:11:29;;;;;;;30.27;22.80;;;6.40;99.90;;;;;;5094272;28;20249;-63
2021/12/24 02:14:02;;;;;;;28.30;19.83;;;6.40;99.90;;;;;;5095207;28;20576;-63
2021/12/24 02:16:42;;;;;;;26.52;19.65;;;6.40;99.90;;;;;;5094755;28;20308;-63
2021/12/24 02:30:20;;;;;;;24.83;17.77;;;6.50;99.90;;;;;;5052266;28;20232;-63
2021/12/24 02:32:47;;;;;;;20.10;17.42;;;6.50;99.90;;;;;;5084876;28;20232;-63
2021/12/24 02:35:14;;;;;;;22.33;16.77;;;6.50;99.90;;;;;;5094240;28;20231;-63
2021/12/24 02:37:43;;;;;;;23.02;17.25;;;6.50;99.90;;;;;;5094623;28;20223;-63
2021/12/24 02:40:11;;;;;;;23.30;17.15;;;6.60;99.90;;;;;;5093790;28;20226;-63
2021/12/24 02:42:38;;;;;;;21.50;17.20;;;6.60;99.90;;;;;;5094658;28;20238;-63
2021/12/24 02:45:06;;;;;;;21.58;17.35;;;6.60;99.90;;;;;;5094193;28;20223;-63
2021/12/24 02:47:42;;;;;;;22.65;16.40;;;6.60;99.90;;;;;;5094616;28;20227;-63
2021/12/24 02:55:39;;;;;;;18.98;16.98;;;6.60;99.90;;;;;;5095007;28;20672;-63
2021/12/24 02:58:06;;;;;;;22.00;16.35;;;6.60;99.90;;;;;;5094025;28;20219;-63
2021/12/24 03:00:32;;;;;;;26.88;17.10;;;6.60;99.90;;;;;;5087866;28;20226;-63
2021/12/24 03:02:59;;;;;;;17.25;14.15;;;6.60;99.90;;;;;;5086761;28;20305;-63
2021/12/24 03:05:27;;;;;;;21.13;16.58;;;6.70;99.90;;;;;;5093788;28;20226;-63
2021/12/24 03:07:56;;;;;;;19.63;14.45;;;6.70;99.90;;;;;;5080704;28;20681;-63
2021/12/24 03:10:23;;;;;;;20.00;15.75;;;6.70;99.90;;;;;;5094327;28;20227;-63
2021/12/24 03:12:53;;;;;;;17.27;13.90;;;6.70;99.90;;;;;;5093709;28;20231;-63
2021/12/24 03:15:24;;;;;;;20.00;14.90;;;6.70;99.90;;;;;;5093980;28;20216;-63
2021/12/24 03:17:54;;;;;;;18.95;14.30;;;6.70;99.90;;;;;;5093626;28;20233;-63
2021/12/24 03:20:22;;;;;;;17.80;13.65;;;6.80;99.90;;;;;;5093912;28;20238;-63
2021/12/24 03:23:03;;;;;;;17.27;14.02;;;6.80;99.90;;;;;;5093321;28;20227;-63
2021/12/24 03:25:32;;;;;;;16.80;15.02;;;6.80;99.90;;;;;;5093883;28;20215;-63
2021/12/24 03:27:59;;;;;;;19.40;15.43;;;6.80;99.90;;;;;;5093269;28;20699;-63
2021/12/24 03:30:26;;;;;;;14.80;13.10;;;6.80;99.90;;;;;;5093889;28;20582;-63
2021/12/24 03:32:53;;;;;;;17.42;15.15;;;6.90;99.90;;;;;;5093096;28;20237;-63
2021/12/24 03:35:20;;;;;;;19.58;14.75;;;6.90;99.90;;;;;;5093572;28;20229;-63
2021/12/24 03:37:47;;;;;;;19.80;14.40;;;6.90;99.90;;;;;;5093115;28;20235;-63
2021/12/24 03:40:14;;;;;;;14.55;12.43;;;6.90;99.90;;;;;;5085507;28;20681;-63
2021/12/24 03:42:43;;;;;;;17.67;14.50;;;6.90;99.90;;;;;;5092413;28;20227;-63
2021/12/24 03:45:22;;;;;;;20.30;14.40;;;6.90;99.90;;;;;;5093226;28;20597;-63
2021/12/24 03:47:56;;;;;;;18.33;14.15;;;7.00;99.90;;;;;;5080318;28;20280;-63
2021/12/24 03:50:26;;;;;;;18.52;15.00;;;7.00;99.90;;;;;;5093231;28;20614;-64
2021/12/24 03:53:05;;;;;;;17.50;14.13;;;7.00;99.90;;;;;;5092383;28;20215;-63
2021/12/24 03:55:31;;;;;;;19.60;15.35;;;7.00;99.90;;;;;;5093231;28;20218;-63
2021/12/24 03:57:59;;;;;;;17.40;14.45;;;7.00;99.90;;;;;;5092882;28;20219;-63
2021/12/24 04:00:30;;;;;;;17.63;15.35;;;7.00;99.90;;;;;;5087646;28;20229;-63
2021/12/24 04:02:57;;;;;;;16.30;14.57;;;7.00;99.90;;;;;;5089405;28;20569;-64
2021/12/24 04:05:24;;;;;;;17.15;13.50;;;7.10;99.90;;;;;;5092787;28;20226;-63
2021/12/24 04:07:51;;;;;;;17.55;12.73;;;7.10;99.90;;;;;;5092520;28;20306;-63
2021/12/24 04:10:27;;;;;;;14.90;12.32;;;7.10;99.90;;;;;;5085419;28;20233;-63
2021/12/24 04:12:54;;;;;;;16.33;13.45;;;7.10;99.90;;;;;;5087616;28;20237;-63
2021/12/24 04:15:22;;;;;;;16.77;14.73;;;7.10;99.90;;;;;;5092581;28;20222;-63
2021/12/24 04:17:50;;;;;;;15.18;12.85;;;7.10;99.90;;;;;;5092546;28;20238;-63
2021/12/24 04:25:45;;;;;;;17.15;13.60;;;7.20;99.90;;;;;;5093038;28;20226;-64
2021/12/24 04:28:12;;;;;;;14.43;11.43;;;7.20;99.90;;;;;;5092197;28;20223;-64
2021/12/24 04:30:46;;;;;;;13.73;12.15;;;7.20;99.90;;;;;;5092764;28;20574;-64
2021/12/24 04:33:19;;;;;;;16.63;12.40;;;7.20;99.90;;;;;;5092464;28;20223;-63
2021/12/24 04:35:47;;;;;;;15.63;11.80;;;7.30;99.90;;;;;;5092737;28;20585;-64
2021/12/24 04:52:07;;;;;;;11.68;10.50;;;7.40;99.90;;;;;;5089709;28;20249;-63
2021/12/24 05:03:01;;;;;;;13.18;11.35;;;7.50;99.90;;;;;;5084159;28;20234;-63
2021/12/24 05:05:38;;;;;;;12.63;10.15;;;7.50;99.90;;;;;;5089431;28;20665;-63
2021/12/24 05:08:19;;;;;;;12.52;10.32;;;7.60;99.90;;;;;;5089897;28;20222;-63
2021/12/24 05:10:46;;;;;;;10.10;9.00;;;7.60;99.90;;;;;;5093102;28;20680;-63
2021/12/24 05:13:15;;;;;;;12.25;9.93;;;7.60;99.90;;;;;;5094536;28;20229;-63
2021/12/24 05:15:45;;;;;;;12.63;10.13;;;7.60;99.90;;;;;;5089958;28;20223;-64
2021/12/24 05:18:30;;;;;;;13.82;10.70;;;7.60;99.90;;;;;;5086271;28;20234;-63
2021/12/24 05:23:43;;;;;;;10.45;9.35;;;7.70;99.90;;;;;;5091690;28;20225;-63
2021/12/24 05:26:10;;;;;;;10.18;9.27;;;7.70;99.90;;;;;;5091544;28;20229;-63
2021/12/24 05:28:40;;;;;;;9.90;7.80;;;7.70;99.90;;;;;;5091789;28;20226;-63
2021/12/24 05:31:07;;;;;;;9.35;7.85;;;7.70;99.90;;;;;;5079173;28;20353;-63
2021/12/24 05:33:35;;;;;;;11.70;9.32;;;7.70;99.90;;;;;;5091705;28;20219;-63
2021/12/24 05:36:02;;;;;;;10.70;8.88;;;7.70;99.90;;;;;;5091975;28;20223;-63
2021/12/24 05:38:30;;;;;;;9.77;8.48;;;7.80;99.90;;;;;;5091968;28;20215;-64
2021/12/24 05:40:57;;;;;;;9.13;7.80;;;7.80;99.90;;;;;;5091488;28;20238;-63
2021/12/24 05:43:23;;;;;;;9.60;8.43;;;7.80;99.90;;;;;;5091765;28;20219;-63
2021/12/24 05:45:50;;;;;;;9.30;6.75;;;7.80;99.90;;;;;;5091820;28;20306;-63
2021/12/24 05:48:17;;;;;;;9.48;8.18;;;7.90;99.90;;;;;;5090849;28;20598;-63
2021/12/24 05:50:46;;;;;;;8.65;7.78;;;7.90;99.90;;;;;;5071108;28;20228;-63
2021/12/24 05:53:13;;;;;;;7.20;6.50;;;7.90;99.90;;;;;;5066431;28;20307;-63
2021/12/24 05:55:41;;;;;;;8.18;7.25;;;7.90;99.90;;;;;;5071393;28;20230;-63
2021/12/24 05:58:09;;;;;;;8.52;6.15;;;7.90;99.90;;;;;;5071522;28;20692;-64
2021/12/24 06:00:38;;;;;;;7.47;6.70;;;7.90;99.90;;;;;;5066778;28;20224;-62
2021/12/24 06:03:06;;;;;;;6.10;5.05;;;8.00;99.90;;;;;;5069325;28;20254;-63
2021/12/24 06:05:33;;;;;;;6.72;5.85;;;7.90;99.90;;;;;;5074937;28;20613;-63
2021/12/24 06:08:01;;;;;;;5.93;5.30;;;7.90;99.90;;;;;;5073980;28;20545;-63
2021/12/24 06:10:28;;;;;;;6.47;5.30;;;8.00;99.90;;;;;;5074040;28;20239;-63
2021/12/24 06:12:56;;;;;;;6.68;5.30;;;8.00;99.90;;;;;;5094161;28;20229;-63
2021/12/24 06:15:25;;;;;;;5.57;5.05;;;8.00;99.90;;;;;;5094747;28;20756;-62
2021/12/24 06:17:55;;;;;;;6.07;4.97;;;8.00;99.90;;;;;;5073798;28;20230;-63
2021/12/24 06:20:23;;;;;;;4.80;4.40;;;8.00;99.90;;;;;;5074249;28;20277;-63
2021/12/24 06:22:50;;;;;;;4.57;4.15;;;8.10;99.90;;;;;;5073726;28;20224;-62
2021/12/24 06:25:19;;;;;;;5.05;4.65;;;8.10;99.90;;;;;;5074868;28;20216;-63
2021/12/24 06:27:47;;;;;;;5.07;4.60;;;8.10;99.90;;;;;;5074479;28;20700;-63
2021/12/24 06:30:15;;;;;;;4.35;4.00;;;8.10;99.90;;;;;;5066863;28;20650;-63
2021/12/24 06:32:42;;;;;;;4.80;4.40;;;8.10;99.90;;;;;;5072954;28;20605;-63
2021/12/24 06:35:10;;;;;;;4.63;4.22;;;8.10;99.90;;;;;;5072774;28;20341;-63
2021/12/24 06:37:37;;;;;;;5.80;4.40;;;8.10;99.90;;;;;;5054730;28;20232;-63
2021/12/24 06:40:05;;;;;;;4.25;3.88;;;8.10;99.90;;;;;;5059061;28;20983;-63
2021/12/24 06:42:33;;;;;;;4.53;4.18;;;8.10;99.90;;;;;;5072919;28;20232;-63
2021/12/24 06:45:01;;;;;;;6.25;5.65;;;8.20;99.90;;;;;;5073005;28;20235;-64
2021/12/24 06:47:28;;;;;;;5.65;5.25;;;8.20;99.90;;;;;;5074161;28;20308;-63
2021/12/24 06:49:55;;;;;;;5.28;4.78;;;8.20;99.90;;;;;;5088465;28;20219;-63
2021/12/24 06:52:22;;;;;;;6.10;5.18;;;8.20;99.90;;;;;;5091655;28;20687;-62
2021/12/24 06:54:49;;;;;;;4.43;3.72;;;8.30;99.90;;;;;;5094528;28;20237;-63
2021/12/24 06:57:18;;;;;;;5.28;4.82;;;8.30;99.90;;;;;;5094898;28;20253;-63
2021/12/24 06:59:47;;;;;;;3.83;3.40;;;8.20;99.90;;;;;;5084023;28;20220;-63
2021/12/24 07:02:14;;;;;;;3.80;3.50;;;8.30;99.90;;;;;;5078018;28;20277;-63
2021/12/24 07:04:41;;;;;;;3.58;3.28;;;8.30;99.90;;;;;;5079230;28;20568;-64
2021/12/24 07:07:08;;;;;;;4.18;3.80;;;8.30;99.90;;;;;;5094207;28;20231;-63
2021/12/24 07:09:35;;;;;;;4.00;3.70;;;8.30;99.90;;;;;;5094420;28;20297;-63
2021/12/24 07:12:02;;;;;;;4.43;4.03;;;8.40;99.90;;;;;;5093807;28;20306;-64
2021/12/24 07:14:33;;;;;;;4.30;4.00;;;8.40;99.90;;;;;;5094405;28;20238;-63
2021/12/24 07:17:02;;;;;;;4.78;4.25;;;8.40;99.90;;;;;;5093988;28;20289;-63
2021/12/24 07:19:29;;;;;;;4.50;4.10;;;8.40;99.90;;;;;;5094465;28;20223;-63
2021/12/24 07:21:56;;;;;;;4.30;3.90;;;8.40;99.90;;;;;;5077668;28;20231;-63
2021/12/24 07:24:23;;;;;;;3.80;3.40;;;8.40;99.90;;;;;;5094259;28;20225;-64
2021/12/24 07:26:50;;;;;;;3.63;3.35;;;8.40;99.90;;;;;;5093584;28;20224;-64
2021/12/24 07:29:17;;;;;;;3.60;3.30;;;8.40;99.90;;;;;;5094204;28;20223;-63
2021/12/24 07:31:44;;;;;;;4.03;3.70;;;8.50;99.90;;;;;;5093637;28;20681;-63
2021/12/24 07:34:12;;;;;;;2.95;2.75;;;8.50;99.90;;;;;;5094068;28;20234;-63
2021/12/24 07:36:39;;;;;;;3.28;3.05;;;8.50;99.90;;;;;;5094102;28;20556;-64
2021/12/24 07:39:06;;;;;;;3.00;2.78;;;8.50;99.90;;;;;;5092911;28;20234;-64
2021/12/24 07:41:33;;;;;;;3.58;3.35;;;8.50;99.90;;;;;;5092558;28;20742;-63
2021/12/24 07:44:01;;;;;;;3.40;3.20;;;8.50;99.90;;;;;;5092829;28;20231;-62
2021/12/24 07:46:35;;;;;;;3.08;2.88;;;8.60;99.90;;;;;;5093713;28;20224;-63
2021/12/24 07:49:17;;;;;;;3.20;2.88;;;8.50;99.90;;;;;;5093391;28;20321;-62
2021/12/24 07:52:02;;;;;;;3.85;3.55;;;8.50;99.90;;;;;;5093597;28;20306;-63
2021/12/24 07:54:30;;;;;;;3.97;3.30;;;8.60;99.90;;;;;;5092152;28;20581;-62
2021/12/24 07:56:58;;;;;;;3.28;2.97;;;8.60;99.90;;;;;;5093646;28;20695;-63
2021/12/24 07:59:26;;;;;;;4.00;3.60;;;8.60;99.90;;;;;;5093214;28;20219;-63
2021/12/24 08:01:54;;;;;;;3.47;3.25;;;8.60;99.90;;;;;;5093425;28;20234;-63
2021/12/24 08:04:22;;;;;;;3.42;3.13;;;8.60;99.90;;;;;;5093339;28;20215;-63
2021/12/24 08:06:50;;;;;;;9.13;6.95;;;8.60;99.90;;;;;;5093041;28;20229;-63
2021/12/24 08:09:17;;;;;;;3.25;3.05;;;8.60;99.90;;;;;;5093393;28;20225;-62
2021/12/24 08:11:44;;;;;;;3.28;2.97;;;8.70;99.90;;;;;;5092523;28;20691;-63
2021/12/24 08:14:11;;;;;;;2.47;2.28;;;8.70;99.90;;;;;;5093265;28;20229;-63
2021/12/24 08:16:37;;;;;;;2.72;2.53;;;8.70;99.90;;;;;;5092867;28;20219;-63
2021/12/24 08:19:04;;;;;;;2.80;2.55;;;8.70;99.90;;;;;;5093222;28;20226;-63
2021/12/24 08:21:31;;;;;;;2.65;2.45;;;8.70;99.90;;;;;;5092661;28;20591;-63
2021/12/24 08:23:59;;;;;;;2.40;2.30;;;8.70;99.90;;;;;;5085244;28;20220;-63
2021/12/24 08:26:29;;;;;;;3.08;2.78;;;8.70;99.90;;;;;;5072927;28;20223;-63
2021/12/24 08:28:56;;;;;;;2.50;2.30;;;8.70;99.90;;;;;;5072599;28;21024;-64
2021/12/24 08:31:23;;;;;;;1.70;1.52;;;8.70;99.90;;;;;;5072579;28;20224;-63
2021/12/24 08:33:49;;;;;;;3.15;2.55;;;8.80;99.90;;;;;;5072354;28;20228;-63
2021/12/24 08:36:16;;;;;;;2.25;2.05;;;8.80;99.90;;;;;;5072881;28;20666;-63
2021/12/24 08:38:43;;;;;;;2.50;2.30;;;8.80;99.90;;;;;;5072137;28;20763;-63
2021/12/24 08:41:11;;;;;;;2.35;2.15;;;8.80;99.90;;;;;;5088270;28;20249;-63
2021/12/24 08:43:38;;;;;;;2.22;2.00;;;8.80;99.90;;;;;;5092321;28;20223;-63
2021/12/24 08:46:05;;;;;;;5.53;4.75;;;8.80;99.90;;;;;;5092744;28;20220;-63
2021/12/24 08:48:32;;;;;;;3.17;2.97;;;8.80;99.90;;;;;;5092187;28;20866;-64
2021/12/24 08:50:59;;;;;;;3.90;3.60;;;8.80;99.90;;;;;;5092959;28;20559;-64
2021/12/24 08:53:26;;;;;;;2.85;2.65;;;8.80;99.90;;;;;;5088076;28;20219;-64
2021/12/24 08:55:54;;;;;;;2.70;2.50;;;8.80;99.90;;;;;;5092157;28;20227;-65
2021/12/24 08:58:22;;;;;;;2.60;2.40;;;8.80;99.90;;;;;;5092846;28;20220;-64
2021/12/24 09:00:50;;;;;;;2.20;2.00;;;8.80;99.90;;;;;;5092286;28;20228;-62
2021/12/24 09:03:17;;;;;;;2.38;2.20;;;8.80;99.90;;;;;;5092276;28;20223;-64
2021/12/24 09:05:44;;;;;;;2.72;2.53;;;8.80;99.90;;;;;;5092106;28;20722;-63
2021/12/24 09:08:11;;;;;;;2.60;2.40;;;8.80;99.90;;;;;;5092472;28;20224;-64
2021/12/24 09:10:37;;;;;;;2.50;2.30;;;8.80;99.90;;;;;;5092135;28;20711;-64
2021/12/24 09:13:05;;;;;;;1.85;1.75;;;8.80;99.90;;;;;;5092645;28;20224;-64
2021/12/24 09:15:33;;;;;;;1.85;1.70;;;8.80;99.90;;;;;;5092544;28;20234;-63
2021/12/24 09:18:03;;;;;;;1.40;1.30;;;8.80;99.90;;;;;;5092400;28;20223;-63
2021/12/24 09:20:36;;;;;;;1.65;1.55;;;8.90;99.90;;;;;;5092399;28;20223;-63
2021/12/24 09:23:04;;;;;;;1.70;1.60;;;8.80;99.90;;;;;;5092002;28;20254;-63
2021/12/24 09:25:31;;;;;;;2.38;2.17;;;8.80;99.90;;;;;;5092450;28;20681;-64
2021/12/24 09:27:59;;;;;;;2.28;1.90;;;8.80;99.90;;;;;;5092130;28;20219;-63
2021/12/24 09:30:27;;;;;;;2.80;2.38;;;8.80;99.90;;;;;;5092203;28;20233;-64
2021/12/24 09:32:55;;;;;;;2.47;2.25;;;8.80;99.90;;;;;;5091949;28;20212;-64
2021/12/24 09:35:24;;;;;;;2.08;1.88;;;8.80;99.90;;;;;;5095996;28;20223;-63
2021/12/24 09:37:51;;;;;;;3.15;2.65;;;8.80;99.90;;;;;;5095923;28;20232;-64
2021/12/24 09:40:18;;;;;;;20.73;14.35;;;8.80;99.90;;;;;;5096067;28;20561;-64
2021/12/24 09:42:46;;;;;;;11.38;6.65;;;8.80;99.90;;;;;;5095877;28;20697;-63
2021/12/24 09:45:14;;;;;;;10.23;6.82;;;8.80;99.90;;;;;;5096161;28;20229;-63
2021/12/24 09:47:42;;;;;;;6.28;4.60;;;8.80;99.90;;;;;;5095804;28;20707;-64
2021/12/24 09:50:13;;;;;;;13.68;9.77;;;8.90;99.90;;;;;;5095821;28;20238;-63
2021/12/24 09:52:40;;;;;;;8.50;6.53;;;8.90;99.90;;;;;;5091390;28;20211;-64
2021/12/24 09:55:09;;;;;;;5.40;4.05;;;8.90;99.90;;;;;;5095586;28;20237;-64
2021/12/24 09:57:36;;;;;;;6.75;5.25;;;8.90;99.90;;;;;;5096158;28;20233;-64
2021/12/24 10:00:07;;;;;;;9.27;7.18;;;8.90;99.90;;;;;;5095274;28;20587;-64
2021/12/24 10:02:41;;;;;;;11.25;8.85;;;8.90;99.90;;;;;;5095640;28;20227;-64
2021/12/24 10:08:07;;;;;;;10.45;7.97;;;8.90;99.90;;;;;;5131065;27;20554;-65
2021/12/24 10:10:35;;;;;;;5.97;5.22;;;8.90;99.90;;;;;;5143147;27;20221;-64
2021/12/24 10:13:36;;;;;;;7.10;4.50;;;8.90;99.90;;;;;;5151192;27;20221;-63
2021/12/24 10:16:05;;;;;;;7.63;6.22;;;9.00;99.90;;;;;;5151216;27;20217;-63
2021/12/24 10:18:43;;;;;;;7.07;6.35;;;9.00;99.90;;;;;;5151458;27;20290;-63
2021/12/24 10:21:12;;;;;;;6.90;5.88;;;9.00;99.90;;;;;;5151175;27;20665;-63
2021/12/24 10:23:44;;;;;;;6.55;5.38;;;9.00;99.90;;;;;;5151605;27;20224;-63
2021/12/24 10:26:13;;;;;;;6.55;5.20;;;9.00;99.90;;;;;;5151028;27;20930;-63
2021/12/24 10:28:56;;;;;;;4.45;3.70;;;9.00;99.90;;;;;;5151266;27;20231;-63
2021/12/24 10:31:25;;;;;;;5.35;4.45;;;9.00;99.90;;;;;;5151601;27;20225;-64
2021/12/24 10:34:19;;;;;;;4.25;3.85;;;9.00;99.90;;;;;;5151024;27;21030;-63
2021/12/24 10:37:09;;;;;;;11.25;6.57;;;9.00;99.90;;;;;;5150802;27;20262;-63
2021/12/24 10:39:47;;;;;;;12.35;8.60;;;9.00;99.90;;;;;;5141309;27;20290;-63
2021/12/24 10:42:17;;;;;;;14.52;11.65;;;9.00;99.90;;;;;;5130494;27;20233;-63
2021/12/24 10:44:45;;;;;;;7.82;5.47;;;9.00;99.90;;;;;;5129853;27;20220;-63
2021/12/24 10:47:16;;;;;;;6.35;5.00;;;9.00;99.90;;;;;;5146355;27;20565;-63
2021/12/24 10:55:31;;;;;;;2.65;2.45;;;9.00;99.90;;;;;;5150675;27;20209;-63
2021/12/24 10:58:00;;;;;;;2.88;2.67;;;9.00;99.90;;;;;;5134802;27;20220;-63
2021/12/24 11:00:32;;;;;;;7.15;5.32;;;9.00;99.90;;;;;;5138001;27;20214;-63
2021/12/24 11:03:01;;;;;;;4.05;3.10;;;9.00;99.90;;;;;;5150357;27;20217;-64
2021/12/24 11:05:35;;;;;;;5.05;2.78;;;9.00;99.90;;;;;;5150447;27;20228;-63
2021/12/24 11:08:04;;;;;;;4.63;4.03;;;9.00;99.90;;;;;;5109279;27;20211;-63
2021/12/24 11:10:35;;;;;;;7.03;6.03;;;9.00;99.90;;;;;;5109207;27;20219;-63
2021/12/24 11:13:08;;;;;;;7.50;5.80;;;9.00;99.90;;;;;;5108865;27;20258;-63
2021/12/24 11:15:37;;;;;;;4.38;3.85;;;9.00;99.90;;;;;;5109409;27;20239;-64
2021/12/24 11:18:09;;;;;;;4.60;4.25;;;8.90;99.90;;;;;;5102659;27;20216;-63
2021/12/24 11:20:36;;;;;;;4.80;4.32;;;8.90;99.90;;;;;;5087326;28;20286;-63
2021/12/24 11:23:06;;;;;;;5.05;4.13;;;8.90;99.90;;;;;;5074838;28;20234;-62
2021/12/24 11:25:36;;;;;;;2.95;2.65;;;8.90;99.90;;;;;;5075256;28;20307;-63
2021/12/24 11:28:03;;;;;;;2.42;2.22;;;8.90;99.90;;;;;;5074753;28;20267;-62
2021/12/24 11:30:32;;;;;;;3.63;3.25;;;8.80;99.90;;;;;;5075002;28;20694;-62
2021/12/24 11:32:59;;;;;;;2.47;2.28;;;8.80;99.90;;;;;;5074446;28;20281;-62
2021/12/24 11:35:27;;;;;;;3.83;3.50;;;8.80;99.90;;;;;;5075147;28;20224;-64
2021/12/24 11:37:54;;;;;;;2.40;2.20;;;8.80;99.90;;;;;;5074500;28;20228;-62
2021/12/24 11:40:24;;;;;;;10.70;5.32;;;8.70;99.90;;;;;;5084021;28;20237;-62
2021/12/24 11:42:57;;;;;;;4.45;4.05;;;8.60;99.90;;;;;;5094721;28;20215;-63
2021/12/24 11:45:26;;;;;;;3.78;2.95;;;8.60;99.90;;;;;;5095027;28;20220;-63
2021/12/24 11:47:53;;;;;;;3.45;2.65;;;8.60;99.90;;;;;;5094706;28;20310;-65
2021/12/24 11:50:21;;;;;;;3.05;2.80;;;8.60;99.90;;;;;;5085061;28;20246;-65
2021/12/24 11:52:52;;;;;;;6.03;4.78;;;8.60;99.90;;;;;;5078664;28;20561;-63
2021/12/24 11:55:20;;;;;;;4.03;3.20;;;8.40;99.90;;;;;;5085883;28;20219;-63
2021/12/24 11:57:53;;;;;;;3.90;3.10;;;8.40;99.90;;;;;;5074140;28;20223;-63
2021/12/24 12:00:27;;;;;;;3.15;2.60;;;8.30;99.90;;;;;;5081278;28;20752;-63
2021/12/24 12:02:55;;;;;;;4.00;2.70;;;8.30;99.90;;;;;;5094213;28;20237;-63
2021/12/24 12:05:26;;;;;;;2.42;2.22;;;8.20;99.90;;;;;;5094946;28;20309;-63
2021/12/24 12:08:33;;;;;;;1.95;1.80;;;8.20;99.90;;;;;;5133944;27;20230;-63
2021/12/24 12:11:01;;;;;;;1.40;1.30;;;8.10;99.90;;;;;;5135286;27;20632;-63
2021/12/24 12:13:42;;;;;;;1.42;1.33;;;8.10;99.90;;;;;;5135478;27;20298;-63
2021/12/24 12:16:11;;;;;;;2.42;1.70;;;8.00;99.90;;;;;;5132276;27;20228;-63
2021/12/24 12:18:49;;;;;;;2.30;1.75;;;7.90;99.90;;;;;;5094753;27;20230;-64
2021/12/24 12:21:26;;;;;;;2.47;2.25;;;7.90;99.90;;;;;;5112142;27;20306;-63
2021/12/24 12:26:49;;;;;;;2.80;2.42;;;7.70;99.90;;;;;;5094963;27;20677;-64
2021/12/24 12:29:29;;;;;;;1.95;1.85;;;7.70;99.90;;;;;;5092875;27;20673;-64
2021/12/24 12:32:02;;;;;;;2.53;2.33;;;7.70;99.90;;;;;;5093937;27;20705;-64
2021/12/24 12:34:59;;;;;;;3.25;2.72;;;7.50;99.90;;;;;;5094351;27;20557;-63
2021/12/24 12:37:30;;;;;;;2.63;2.42;;;7.50;99.90;;;;;;5093887;27;20227;-63
2021/12/24 12:40:04;;;;;;;2.00;1.80;;;7.50;99.90;;;;;;5093951;27;20230;-64
2021/12/24 12:43:04;;;;;;;1.48;1.38;;;7.40;99.90;;;;;;5093479;27;20215;-64
2021/12/24 12:45:56;;;;;;;1.73;1.45;;;7.30;99.90;;;;;;5104528;27;20982;-62
2021/12/24 12:48:26;;;;;;;3.53;2.92;;;7.30;99.90;;;;;;5113960;27;20235;-63
2021/12/24 12:50:55;;;;;;;2.42;1.80;;;7.20;99.90;;;;;;5114362;27;20231;-63
2021/12/24 12:53:27;;;;;;;2.78;2.58;;;7.20;99.90;;;;;;5108947;27;20219;-63
2021/12/24 12:56:09;;;;;;;1.60;1.50;;;7.10;99.90;;;;;;5113878;27;20253;-63
2021/12/24 12:58:37;;;;;;;1.60;1.50;;;7.10;99.90;;;;;;5113872;27;20224;-63
2021/12/24 13:01:07;;;;;;;1.52;1.42;;;7.10;99.90;;;;;;5127132;27;20222;-63
2021/12/24 13:03:54;;;;;;;2.50;2.20;;;7.00;99.90;;;;;;5114749;27;20316;-63
2021/12/24 13:06:23;;;;;;;2.10;1.95;;;7.00;99.90;;;;;;5132555;27;20253;-63
2021/12/24 13:08:51;;;;;;;2.35;2.15;;;7.00;99.90;;;;;;5134426;27;20232;-63
2021/12/24 13:11:20;;;;;;;3.42;3.13;;;6.90;99.90;;;;;;5133873;27;20313;-63
2021/12/24 13:13:54;;;;;;;2.65;2.42;;;6.90;99.90;;;;;;5134565;27;20214;-64
2021/12/24 13:16:23;;;;;;;2.10;2.00;;;6.90;99.90;;;;;;5127481;27;20246;-64
2021/12/24 13:18:53;;;;;;;4.47;3.38;;;6.80;99.90;;;;;;5093623;27;20219;-64
2021/12/24 13:24:12;;;;;;;4.70;3.03;;;6.80;99.90;;;;;;5093285;27;20234;-63
2021/12/24 13:26:39;;;;;;;2.65;2.45;;;6.80;99.90;;;;;;5092969;27;20298;-63
2021/12/24 13:29:12;;;;;;;3.03;2.33;;;6.70;99.90;;;;;;5093246;27;20302;-63
2021/12/24 13:31:40;;;;;;;3.00;2.80;;;6.70;99.90;;;;;;5093111;27;20225;-62
2021/12/24 13:34:12;;;;;;;3.55;3.20;;;6.60;99.90;;;;;;5092615;27;20223;-63
2021/12/24 13:36:40;;;;;;;4.10;3.40;;;6.60;99.90;;;;;;5092444;27;20223;-63
2021/12/24 13:39:13;;;;;;;3.33;3.03;;;6.50;99.90;;;;;;5093045;27;20238;-63
2021/12/24 13:41:41;;;;;;;3.13;2.85;;;6.50;99.90;;;;;;5101592;27;20649;-63
2021/12/24 13:44:20;;;;;;;3.65;3.35;;;6.50;99.90;;;;;;5112689;27;20218;-63
2021/12/24 13:47:00;;;;;;;4.18;3.80;;;6.50;99.90;;;;;;5112937;27;20313;-64
2021/12/24 13:49:43;;;;;;;3.72;3.42;;;6.50;99.90;;;;;;5112697;27;20222;-63
2021/12/24 13:54:55;;;;;;;4.40;4.00;;;6.40;99.90;;;;;;5112980;27;20816;-63
2021/12/24 13:57:24;;;;;;;6.43;5.25;;;6.40;99.90;;;;;;5113154;27;20207;-64
2021/12/24 13:59:52;;;;;;;7.05;6.35;;;6.50;99.90;;;;;;5112717;27;21168;-64
2021/12/24 14:02:19;;;;;;;6.68;5.07;;;6.40;99.90;;;;;;5113038;27;20233;-64
2021/12/24 14:04:45;;;;;;;5.05;4.55;;;6.40;99.90;;;;;;5116004;27;20309;-62
2021/12/24 14:07:14;;;;;;;5.22;4.72;;;6.40;99.90;;;;;;5127269;27;20598;-63
2021/12/24 14:09:41;;;;;;;4.70;4.30;;;6.30;99.90;;;;;;5133059;27;20233;-63
2021/12/24 14:12:09;;;;;;;6.05;5.45;;;6.30;99.90;;;;;;5133803;27;20300;-63
2021/12/24 14:14:50;;;;;;;4.78;4.38;;;6.30;99.90;;;;;;5133243;27;20297;-64
2021/12/24 14:17:35;;;;;;;5.03;4.63;;;6.30;99.90;;;;;;5133485;27;20238;-63
2021/12/24 14:20:12;;;;;;;5.40;4.90;;;6.30;99.90;;;;;;5133070;27;20225;-63
2021/12/24 14:22:40;;;;;;;5.90;5.40;;;6.30;99.90;;;;;;5133015;27;20301;-63
2021/12/24 14:25:13;;;;;;;5.50;5.00;;;6.20;99.90;;;;;;5133695;27;20225;-64
2021/12/24 14:27:46;;;;;;;5.80;5.20;;;6.20;99.90;;;;;;5133064;27;20274;-64
2021/12/24 14:30:17;;;;;;;7.22;6.53;;;6.20;99.90;;;;;;5133257;27;20222;-63
2021/12/24 14:32:46;;;;;;;7.13;6.40;;;6.20;99.90;;;;;;5132945;27;20713;-63
2021/12/24 14:35:16;;;;;;;6.63;5.88;;;6.30;99.90;;;;;;5133457;27;20570;-63
2021/12/24 14:37:55;;;;;;;7.07;6.38;;;6.20;99.90;;;;;;5132845;27;20568;-63